createdAt,value
2022-11-05T00:00:50.405Z,2.67
2022-11-05T00:03:37.082Z,1.90
2022-11-05T00:06:22.976Z,3.05
2022-11-05T00:09:09.036Z,2.60
2022-11-05T00:11:55.635Z,3.15
2022-11-05T00:14:42.304Z,2.30
2022-11-05T00:17:09.845Z,2.00
2022-11-05T00:19:37.373Z,1.60
2022-11-05T00:22:23.367Z,2.03
2022-11-05T00:25:09.295Z,1.92
2022-11-05T00:27:36.863Z,1.80
2022-11-05T00:30:09.904Z,1.52
2022-11-05T00:32:37.990Z,1.55
2022-11-05T00:35:07.038Z,1.70
2022-11-05T00:37:34.904Z,1.60
2022-11-05T00:40:03.118Z,1.65
2022-11-05T00:42:50.129Z,1.50
2022-11-05T00:45:17.692Z,1.83
2022-11-05T00:48:04.173Z,1.83
2022-11-05T00:50:32.354Z,2.00
2022-11-05T00:55:38.414Z,1.75
2022-11-05T00:58:21.773Z,1.63
2022-11-05T01:00:52.617Z,2.67
2022-11-05T01:03:23.157Z,2.20
2022-11-05T01:05:54.798Z,2.65
2022-11-05T01:08:25.694Z,3.10
2022-11-05T01:10:56.960Z,2.90
2022-11-05T01:13:28.316Z,2.90
2022-11-05T01:15:57.592Z,3.08
2022-11-05T01:18:25.719Z,4.28
2022-11-05T01:23:22.255Z,2.55
2022-11-05T01:25:50.639Z,2.50
2022-11-05T01:28:18.750Z,3.35
2022-11-05T01:33:15.672Z,2.65
2022-11-05T01:35:43.898Z,2.80
2022-11-05T01:38:11.550Z,2.08
2022-11-05T01:40:43.259Z,2.67
2022-11-05T01:43:17.629Z,2.28
2022-11-05T01:45:49.651Z,2.80
2022-11-05T01:48:28.671Z,2.92
2022-11-05T01:51:01.733Z,1.95
2022-11-05T01:53:36.351Z,2.25
2022-11-05T01:56:25.089Z,2.25
2022-11-05T01:59:13.700Z,2.20
2022-11-05T02:01:41.751Z,3.13
2022-11-05T02:04:14.506Z,3.38
2022-11-05T02:06:46.211Z,3.63
2022-11-05T02:09:22.418Z,4.75
2022-11-05T02:11:51.399Z,3.88
2022-11-05T02:14:20.377Z,3.90
2022-11-05T02:17:15.428Z,4.13
2022-11-05T02:20:33.619Z,4.63
2022-11-05T02:23:35.071Z,3.72
2022-11-05T02:26:03.019Z,4.25
2022-11-05T02:28:58.326Z,3.85
2022-11-05T02:31:56.734Z,4.47
2022-11-05T02:35:09.764Z,3.67
2022-11-05T02:37:55.238Z,3.58
2022-11-05T02:40:36.118Z,3.33
2022-11-05T02:43:04.011Z,3.50
2022-11-05T02:45:37.482Z,3.30
2022-11-05T02:48:17.186Z,4.15
2022-11-05T02:51:38.833Z,3.03
2022-11-05T02:54:06.980Z,3.45
2022-11-05T02:56:38.945Z,2.90
2022-11-05T02:59:06.903Z,2.70
2022-11-05T03:01:37.033Z,3.22
2022-11-05T03:04:09.541Z,3.10
2022-11-05T03:07:00.267Z,3.38
2022-11-05T03:10:08.962Z,2.75
2022-11-05T03:12:50.880Z,3.67
2022-11-05T03:15:49.389Z,3.08
2022-11-05T03:18:32.904Z,3.33
2022-11-05T03:21:24.324Z,3.63
2022-11-05T03:24:03.430Z,4.18
2022-11-05T03:26:38.841Z,3.67
2022-11-05T03:29:11.481Z,3.70
2022-11-05T03:31:41.601Z,3.97
2022-11-05T03:34:12.763Z,3.75
2022-11-05T03:36:48.752Z,3.05
2022-11-05T03:39:19.426Z,3.70
2022-11-05T03:41:51.951Z,3.42
2022-11-05T03:44:26.555Z,3.03
2022-11-05T03:46:58.811Z,3.30
2022-11-05T03:49:32.002Z,3.60
2022-11-05T03:52:17.967Z,3.38
2022-11-05T03:54:46.608Z,3.40
2022-11-05T03:57:25.623Z,3.60
2022-11-05T03:59:53.189Z,3.92
2022-11-05T04:02:24.258Z,3.33
2022-11-05T04:04:53.119Z,3.00
2022-11-05T04:07:39.114Z,3.05
2022-11-05T04:10:25.144Z,2.63
2022-11-05T04:13:11.522Z,2.70
2022-11-05T04:15:58.224Z,2.90
2022-11-05T04:18:26.055Z,2.42
2022-11-05T04:21:12.024Z,2.78
2022-11-05T04:23:58.448Z,2.63
2022-11-05T04:26:26.164Z,2.80
2022-11-05T04:29:12.519Z,2.70
2022-11-05T04:31:40.085Z,2.90
2022-11-05T04:34:07.634Z,2.50
2022-11-05T04:36:35.810Z,2.67
2022-11-05T04:39:03.253Z,2.38
2022-11-05T04:41:31.162Z,2.58
2022-11-05T04:43:58.807Z,2.53
2022-11-05T04:46:26.471Z,2.35
2022-11-05T04:48:53.980Z,2.50
2022-11-05T04:51:21.543Z,2.05
2022-11-05T04:53:49.003Z,2.53
2022-11-05T04:56:21.965Z,2.92
2022-11-05T04:58:50.142Z,2.92
2022-11-05T05:01:20.472Z,2.60
2022-11-05T05:03:49.219Z,2.25
2022-11-05T05:06:17.328Z,2.50
2022-11-05T05:11:16.320Z,2.13
2022-11-05T05:13:43.893Z,2.80
2022-11-05T05:16:29.558Z,2.88
2022-11-05T05:18:57.199Z,2.40
2022-11-05T05:21:39.731Z,3.10
2022-11-05T05:24:08.807Z,2.40
2022-11-05T05:26:42.204Z,2.70
2022-11-05T05:29:10.886Z,3.08
2022-11-05T05:31:38.830Z,3.28
2022-11-05T05:34:07.829Z,3.45
2022-11-05T05:36:35.349Z,3.28
2022-11-05T05:39:06.465Z,3.67
2022-11-05T05:41:34.280Z,3.47
2022-11-05T05:44:02.224Z,5.10
2022-11-05T05:46:29.656Z,3.97
2022-11-05T05:48:57.734Z,4.03
2022-11-05T05:51:25.421Z,3.70
2022-11-05T05:53:54.706Z,3.00
2022-11-05T05:56:22.211Z,3.45
2022-11-05T05:58:50.115Z,3.63
2022-11-05T06:01:19.716Z,2.92
2022-11-05T06:03:49.262Z,2.88
2022-11-05T06:06:21.277Z,3.00
2022-11-05T06:08:49.240Z,3.17
2022-11-05T06:11:16.821Z,3.28
2022-11-05T06:13:44.485Z,3.40
2022-11-05T06:16:12.325Z,3.63
2022-11-05T06:18:39.948Z,4.72
2022-11-05T06:21:10.673Z,3.67
2022-11-05T06:23:40.158Z,4.03
2022-11-05T06:26:13.671Z,4.00
2022-11-05T06:28:42.169Z,3.50
2022-11-05T06:31:14.094Z,3.67
2022-11-05T06:33:41.999Z,4.30
2022-11-05T06:36:14.587Z,4.35
2022-11-05T06:38:42.243Z,4.50
2022-11-05T06:41:10.670Z,4.25
2022-11-05T06:43:39.063Z,4.38
2022-11-05T06:46:06.872Z,4.40
2022-11-05T06:48:34.622Z,5.75
2022-11-05T06:51:03.049Z,4.18
2022-11-05T06:53:30.854Z,4.40
2022-11-05T06:56:01.513Z,4.50
2022-11-05T06:58:29.584Z,5.03
2022-11-05T07:01:01.536Z,4.72
2022-11-05T07:03:29.939Z,4.80
2022-11-05T07:06:00.260Z,4.78
2022-11-05T07:08:32.472Z,4.50
2022-11-05T07:11:00.897Z,5.10
2022-11-05T07:13:28.523Z,4.25
2022-11-05T07:15:56.663Z,4.45
2022-11-05T07:18:24.411Z,5.10
2022-11-05T07:20:52.325Z,5.18
2022-11-05T07:23:20.128Z,5.32
2022-11-05T07:25:47.771Z,5.85
2022-11-05T07:28:15.683Z,6.00
2022-11-05T07:30:43.248Z,6.13
2022-11-05T07:33:11.630Z,6.70
2022-11-05T07:35:39.852Z,6.45
2022-11-05T07:38:11.157Z,6.80
2022-11-05T07:40:39.401Z,6.47
2022-11-05T07:43:07.342Z,6.53
2022-11-05T07:45:34.789Z,6.45
2022-11-05T07:48:04.046Z,7.28
2022-11-05T07:50:34.629Z,7.53
2022-11-05T07:53:14.766Z,7.50
2022-11-05T07:55:43.936Z,7.60
2022-11-05T07:58:12.089Z,8.20
2022-11-05T08:00:40.076Z,7.90
2022-11-05T08:05:39.530Z,7.50
2022-11-05T08:08:08.830Z,8.02
2022-11-05T08:10:37.688Z,8.02
2022-11-05T08:13:06.337Z,8.57
2022-11-05T08:15:35.330Z,8.65
2022-11-05T08:18:05.241Z,8.73
2022-11-05T08:20:33.850Z,10.43
2022-11-05T08:23:01.780Z,11.25
2022-11-05T08:25:29.734Z,10.88
2022-11-05T08:28:01.938Z,10.73
2022-11-05T08:30:30.321Z,11.02
2022-11-05T08:33:00.243Z,10.77
2022-11-05T08:35:28.459Z,10.82
2022-11-05T08:40:28.696Z,9.38
2022-11-05T08:45:27.614Z,9.73
2022-11-05T08:50:30.006Z,11.32
2022-11-05T08:52:57.933Z,10.80
2022-11-05T08:55:26.469Z,9.40
2022-11-05T08:57:58.853Z,10.40
2022-11-05T09:00:28.741Z,11.23
2022-11-05T09:03:02.749Z,10.05
2022-11-05T09:05:31.301Z,9.52
2022-11-05T09:08:01.431Z,9.18
2022-11-05T09:10:29.277Z,9.65
2022-11-05T09:12:56.773Z,9.55
2022-11-05T09:15:24.853Z,9.15
2022-11-05T09:17:52.411Z,8.18
2022-11-05T09:20:20.550Z,8.77
2022-11-05T09:22:47.993Z,9.18
2022-11-05T09:25:16.041Z,8.73
2022-11-05T09:27:44.282Z,8.80
2022-11-05T09:30:13.495Z,8.98
2022-11-05T09:32:41.425Z,9.00
2022-11-05T09:35:09.968Z,9.10
2022-11-05T09:37:38.102Z,7.80
2022-11-05T09:40:06.708Z,7.70
2022-11-05T09:42:41.702Z,8.68
2022-11-05T09:45:16.735Z,7.57
2022-11-05T09:47:58.791Z,6.60
2022-11-05T09:50:33.740Z,7.40
2022-11-05T09:53:02.161Z,6.90
2022-11-05T09:55:35.626Z,6.00
2022-11-05T09:58:12.956Z,6.20
2022-11-05T10:00:41.846Z,6.82
2022-11-05T10:03:17.756Z,6.32
2022-11-05T10:05:46.843Z,5.90
2022-11-05T10:08:23.431Z,5.88
2022-11-05T10:10:56.499Z,6.00
2022-11-05T10:13:36.544Z,4.78
2022-11-05T10:16:28.583Z,5.55
2022-11-05T10:19:17.111Z,4.80
2022-11-05T10:22:05.472Z,5.22
2022-11-05T10:24:32.438Z,5.32
2022-11-05T10:27:00.141Z,5.35
2022-11-05T10:29:30.730Z,5.45
2022-11-05T10:32:00.577Z,5.90
2022-11-05T10:34:32.293Z,5.45
2022-11-05T10:37:00.292Z,5.40
2022-11-05T10:42:24.301Z,5.85
2022-11-05T10:45:06.995Z,4.63
2022-11-05T10:48:13.453Z,4.63
2022-11-05T10:50:41.445Z,4.68
2022-11-05T10:53:16.102Z,4.55
2022-11-05T10:55:50.121Z,4.55
2022-11-05T10:58:17.657Z,4.32
2022-11-05T11:00:50.007Z,4.00
2022-11-05T11:03:46.138Z,3.38
2022-11-05T11:06:30.813Z,3.97
2022-11-05T11:09:02.243Z,3.95
2022-11-05T11:11:37.727Z,4.65
2022-11-05T11:14:27.304Z,3.95
2022-11-05T11:16:57.392Z,3.95
2022-11-05T11:19:29.785Z,4.38
2022-11-05T11:22:13.716Z,8.57
2022-11-05T11:24:44.069Z,20.98
2022-11-05T11:27:22.810Z,5.50
2022-11-05T11:29:57.828Z,5.05
2022-11-05T11:32:31.799Z,4.38
2022-11-05T11:35:01.130Z,4.30
2022-11-05T11:37:35.049Z,4.93
2022-11-05T11:40:11.371Z,3.53
2022-11-05T11:42:41.503Z,3.78
2022-11-05T11:45:33.980Z,4.00
2022-11-05T11:48:05.340Z,5.28
2022-11-05T11:50:34.616Z,4.35
2022-11-05T11:53:36.974Z,4.03
2022-11-05T11:56:19.516Z,3.42
2022-11-05T11:58:54.583Z,3.72
2022-11-05T12:01:40.959Z,4.65
2022-11-05T12:04:34.485Z,3.67
2022-11-05T12:07:07.900Z,3.47
2022-11-05T12:10:04.431Z,3.42
2022-11-05T12:12:40.911Z,4.33
2022-11-05T12:15:11.528Z,3.47
2022-11-05T12:17:42.261Z,4.00
2022-11-05T12:20:32.625Z,3.60
2022-11-05T12:23:42.164Z,3.38
2022-11-05T12:26:23.990Z,3.10
2022-11-05T12:29:18.892Z,3.50
2022-11-05T12:31:55.785Z,3.55
2022-11-05T12:34:56.993Z,3.40
2022-11-05T12:37:52.775Z,3.45
2022-11-05T12:40:23.414Z,3.42
2022-11-05T12:42:51.456Z,3.70
2022-11-05T12:45:43.171Z,2.95
2022-11-05T12:48:34.186Z,3.20
2022-11-05T12:51:10.568Z,3.25
2022-11-05T12:54:01.041Z,4.53
2022-11-05T12:56:59.247Z,3.72
2022-11-05T12:59:37.455Z,2.90
2022-11-05T13:02:22.504Z,3.15
2022-11-05T13:05:01.848Z,3.08
2022-11-05T13:07:37.931Z,2.67
2022-11-05T13:10:19.159Z,2.80
2022-11-05T13:12:53.431Z,3.90
2022-11-05T13:15:32.609Z,3.00
2022-11-05T13:18:05.793Z,3.08
2022-11-05T13:20:38.805Z,3.33
2022-11-05T13:23:24.328Z,2.72
2022-11-05T13:26:09.600Z,3.47
2022-11-05T13:28:57.441Z,2.80
2022-11-05T13:34:04.866Z,3.10
2022-11-05T13:37:13.225Z,3.25
2022-11-05T13:39:52.946Z,3.28
2022-11-05T13:42:20.568Z,2.75
2022-11-05T13:44:50.943Z,2.53
2022-11-05T13:47:31.457Z,2.40
2022-11-05T13:50:17.955Z,3.22
2022-11-05T13:53:04.473Z,2.53
2022-11-05T13:56:01.488Z,2.08
2022-11-05T13:58:52.835Z,2.80
2022-11-05T14:01:35.659Z,2.65
2022-11-05T14:04:04.557Z,2.42
2022-11-05T14:06:35.778Z,2.08
2022-11-05T14:09:20.080Z,2.30
2022-11-05T14:11:55.042Z,2.30
2022-11-05T14:14:34.221Z,2.25
2022-11-05T14:17:08.062Z,2.40
2022-11-05T14:19:49.882Z,2.25
2022-11-05T14:22:32.766Z,2.20
2022-11-05T14:25:19.623Z,2.15
2022-11-05T14:27:49.538Z,2.55
2022-11-05T14:30:46.203Z,2.00
2022-11-05T14:33:26.334Z,1.70
2022-11-05T14:36:22.813Z,2.75
2022-11-05T14:38:53.598Z,3.10
2022-11-05T14:41:22.038Z,2.50
2022-11-05T14:44:05.072Z,2.22
2022-11-05T14:46:47.922Z,2.42
2022-11-05T14:49:46.230Z,2.83
2022-11-05T14:52:17.244Z,2.75
2022-11-05T14:54:53.828Z,2.13
2022-11-05T14:57:43.324Z,2.10
2022-11-05T15:00:29.692Z,2.53
2022-11-05T15:03:03.127Z,3.25
2022-11-05T15:05:39.855Z,2.60
2022-11-05T15:08:29.713Z,2.30
2022-11-05T15:11:07.551Z,2.97
2022-11-05T15:16:16.494Z,2.78
2022-11-05T15:18:46.622Z,2.88
2022-11-05T15:21:17.037Z,2.60
2022-11-05T15:23:47.501Z,2.97
2022-11-05T15:26:45.802Z,3.40
2022-11-05T15:29:22.624Z,3.20
2022-11-05T15:31:51.157Z,3.70
2022-11-05T15:34:26.295Z,2.55
2022-11-05T15:37:20.986Z,3.17
2022-11-05T15:39:50.084Z,3.70
2022-11-05T15:42:27.700Z,2.72
2022-11-05T15:44:57.268Z,3.30
2022-11-05T15:47:24.843Z,3.40
2022-11-05T15:50:03.944Z,3.50
2022-11-05T15:52:49.455Z,4.88
2022-11-05T15:55:20.152Z,3.70
2022-11-05T15:58:03.349Z,3.38
2022-11-05T16:00:36.723Z,3.72
2022-11-05T16:03:15.907Z,3.70
2022-11-05T16:05:46.665Z,1.65
2022-11-05T16:08:23.993Z,2.25
2022-11-05T16:10:54.266Z,1.63
2022-11-05T16:13:32.772Z,0.90
2022-11-05T16:16:13.738Z,0.70
2022-11-05T16:18:42.663Z,0.68
2022-11-05T16:21:12.623Z,1.20
2022-11-05T16:23:48.144Z,1.45
2022-11-05T16:29:37.796Z,2.22
2022-11-05T16:32:31.105Z,3.03
2022-11-05T16:35:05.745Z,2.60
2022-11-05T16:37:41.704Z,2.40
2022-11-05T16:40:15.562Z,3.00
2022-11-05T16:42:44.372Z,2.22
2022-11-05T16:45:14.990Z,2.30
2022-11-05T16:47:43.388Z,2.20
2022-11-05T16:50:18.110Z,2.35
2022-11-05T16:52:47.468Z,2.47
2022-11-05T16:55:16.279Z,2.63
2022-11-05T16:57:46.669Z,3.33
2022-11-05T17:00:19.101Z,3.80
2022-11-05T17:02:47.424Z,2.50
2022-11-05T17:05:19.462Z,2.50
2022-11-05T17:07:48.714Z,3.10
2022-11-05T17:10:16.976Z,2.40
2022-11-05T17:12:46.426Z,2.53
2022-11-05T17:15:22.181Z,2.47
2022-11-05T17:17:53.043Z,3.30
2022-11-05T17:20:39.424Z,3.58
2022-11-05T17:23:24.974Z,2.20
2022-11-05T17:26:01.498Z,2.25
2022-11-05T17:28:29.596Z,2.30
2022-11-05T17:33:41.278Z,2.78
2022-11-05T17:36:14.149Z,3.28
2022-11-05T17:38:42.628Z,3.90
2022-11-05T17:41:20.344Z,3.97
2022-11-05T17:43:48.676Z,3.90
2022-11-05T17:46:17.702Z,4.55
2022-11-05T17:48:47.308Z,3.88
2022-11-05T17:51:19.237Z,4.80
2022-11-05T17:53:49.303Z,4.20
2022-11-05T17:56:29.195Z,5.07
2022-11-05T17:59:03.945Z,16.20
2022-11-05T18:01:35.893Z,17.73
2022-11-05T18:04:09.054Z,16.35
2022-11-05T18:06:38.221Z,14.90
2022-11-05T18:09:07.724Z,21.35
2022-11-05T18:11:36.101Z,12.45
2022-11-05T18:14:04.435Z,10.63
2022-11-05T18:16:32.758Z,8.73
2022-11-05T18:19:00.288Z,9.02
2022-11-05T18:21:28.273Z,9.00
2022-11-05T18:23:56.439Z,10.13
2022-11-05T18:28:51.345Z,12.95
2022-11-05T18:31:20.679Z,13.65
2022-11-05T18:33:49.804Z,14.38
2022-11-05T18:36:25.573Z,33.30
2022-11-05T18:38:53.817Z,48.17
2022-11-05T18:43:49.468Z,42.83
2022-11-05T18:46:43.025Z,46.08
2022-11-05T18:49:06.218Z,40.80
2022-11-05T18:51:33.608Z,47.67
2022-11-05T18:54:01.614Z,57.05
2022-11-05T18:56:29.085Z,48.78
2022-11-05T18:59:21.817Z,48.17
2022-11-05T19:01:46.085Z,48.97
2022-11-05T19:04:14.248Z,56.63
2022-11-05T19:06:42.610Z,65.43
2022-11-05T19:09:12.026Z,102.40
2022-11-05T19:11:40.252Z,114.07
2022-11-05T19:14:08.466Z,107.55
2022-11-05T19:19:06.068Z,108.53
2022-11-05T19:21:34.677Z,80.35
2022-11-05T19:24:03.676Z,67.72
2022-11-05T19:29:02.399Z,36.25
2022-11-05T19:31:31.284Z,18.50
2022-11-05T19:34:01.062Z,60.17
2022-11-05T19:36:29.049Z,42.90
2022-11-05T19:38:58.465Z,61.35
2022-11-05T19:41:26.721Z,51.25
2022-11-05T19:43:55.144Z,174.15
2022-11-05T19:46:23.764Z,279.40
2022-11-05T19:48:51.786Z,228.38
2022-11-05T19:51:21.348Z,225.38
2022-11-05T19:53:51.391Z,191.07
2022-11-05T19:56:22.681Z,188.15
2022-11-05T19:58:50.989Z,215.77
2022-11-05T20:03:46.699Z,220.38
2022-11-05T20:09:07.193Z,225.80
2022-11-05T20:11:32.434Z,185.38
2022-11-05T20:14:00.374Z,250.75
2022-11-05T20:16:32.219Z,244.10
2022-11-05T20:18:59.808Z,283.90
2022-11-05T20:21:27.798Z,206.70
2022-11-05T20:23:59.532Z,201.10
2022-11-05T20:26:27.476Z,193.65
2022-11-05T20:28:56.066Z,239.68
2022-11-05T20:31:24.086Z,233.27
2022-11-05T20:33:52.398Z,182.20
2022-11-05T20:36:22.662Z,168.48
2022-11-05T20:38:55.423Z,183.98
2022-11-05T20:41:23.506Z,168.90
2022-11-05T20:43:51.667Z,148.88
2022-11-05T20:46:20.904Z,140.30
2022-11-05T20:48:48.787Z,150.07
2022-11-05T20:51:18.833Z,141.93
2022-11-05T20:53:47.153Z,133.95
2022-11-05T20:58:47.509Z,192.95
2022-11-05T21:01:16.651Z,194.57
2022-11-05T21:03:45.720Z,167.27
2022-11-05T21:06:14.184Z,209.95
2022-11-05T21:08:42.264Z,207.50
2022-11-05T21:11:10.839Z,217.43
2022-11-05T21:13:38.942Z,231.25
2022-11-05T21:16:09.551Z,172.43
2022-11-05T21:18:40.714Z,168.40
2022-11-05T21:21:11.517Z,161.98
2022-11-05T21:23:39.464Z,158.15
2022-11-05T21:26:09.089Z,119.57
2022-11-05T21:28:39.537Z,168.32
2022-11-05T21:31:08.004Z,205.38
2022-11-05T21:33:36.171Z,147.77
2022-11-05T21:36:08.293Z,194.90
2022-11-05T21:38:35.982Z,169.35
2022-11-05T21:41:04.902Z,172.20
2022-11-05T21:43:32.860Z,209.98
2022-11-05T21:46:01.930Z,222.27
2022-11-05T21:48:30.576Z,220.32
2022-11-05T21:51:17.630Z,231.77
2022-11-05T21:54:03.913Z,206.55
2022-11-05T21:56:51.013Z,220.85
2022-11-05T21:59:39.563Z,250.70
2022-11-05T22:02:08.656Z,213.48
2022-11-05T22:04:39.110Z,243.95
2022-11-05T22:07:08.984Z,233.18
2022-11-05T22:09:37.079Z,272.63
2022-11-05T22:12:05.446Z,267.88
2022-11-05T22:14:34.228Z,255.45
2022-11-05T22:17:02.391Z,254.85
2022-11-05T22:19:30.946Z,264.63
2022-11-05T22:21:59.330Z,258.10
2022-11-05T22:24:32.121Z,243.32
2022-11-05T22:27:02.227Z,245.95
2022-11-05T22:29:30.757Z,222.88
2022-11-05T22:31:58.392Z,247.80
2022-11-05T22:34:26.691Z,204.80
2022-11-05T22:36:54.585Z,240.70
2022-11-05T22:39:22.508Z,292.42
2022-11-05T22:44:20.637Z,291.60
2022-11-05T22:46:48.836Z,180.63
2022-11-05T22:49:17.017Z,207.20
2022-11-05T22:51:46.014Z,222.38
2022-11-05T22:54:14.214Z,177.70
2022-11-05T22:56:43.792Z,169.65
2022-11-05T22:59:16.678Z,245.18
2022-11-05T23:01:45.475Z,274.83
2022-11-05T23:04:14.326Z,246.32
2022-11-05T23:07:00.960Z,248.98
2022-11-05T23:09:50.196Z,216.60
2022-11-05T23:12:32.726Z,229.88
2022-11-05T23:15:02.219Z,260.10
2022-11-05T23:17:48.799Z,258.88
2022-11-05T23:20:38.748Z,234.25
2022-11-05T23:23:51.442Z,169.05
2022-11-05T23:26:38.601Z,218.40
2022-11-05T23:29:06.537Z,191.98
2022-11-05T23:31:53.087Z,221.38
2022-11-05T23:34:20.986Z,161.32
2022-11-05T23:37:07.392Z,142.73
2022-11-05T23:39:39.703Z,139.65
2022-11-05T23:42:28.539Z,143.07
2022-11-05T23:45:15.069Z,132.60
2022-11-05T23:48:01.806Z,128.18
2022-11-05T23:50:34.384Z,122.88
2022-11-05T23:53:06.361Z,144.65
2022-11-05T23:55:34.171Z,158.70
2022-11-05T23:58:02.258Z,155.70
